createdAt,value
2022-09-05T00:03:00.624Z,70.42
2022-09-05T00:06:16.977Z,70.54
2022-09-05T00:09:30.681Z,70.69
2022-09-05T00:12:36.697Z,70.89
2022-09-05T00:16:00.501Z,71.17
2022-09-05T00:24:20.595Z,71.63
2022-09-05T00:24:35.702Z,71.98
2022-09-05T00:27:05.631Z,72.21
2022-09-05T00:31:07.157Z,72.43
2022-09-05T00:34:02.899Z,72.74
2022-09-05T00:37:08.170Z,72.68
2022-09-05T00:40:18.142Z,72.75
2022-09-05T00:43:27.567Z,72.88
2022-09-05T00:46:36.834Z,73.14
2022-09-05T00:49:42.164Z,73.34
2022-09-05T00:53:07.285Z,73.46
2022-09-05T00:57:04.415Z,73.68
2022-09-05T01:00:21.250Z,73.97
2022-09-05T01:03:47.915Z,74.11
2022-09-05T01:06:59.280Z,74.20
2022-09-05T01:10:07.204Z,74.34
2022-09-05T01:13:27.999Z,74.37
2022-09-05T01:17:11.393Z,74.82
2022-09-05T01:20:38.430Z,74.64
2022-09-05T01:24:09.092Z,74.75
2022-09-05T01:27:14.447Z,74.84
2022-09-05T01:30:21.967Z,74.81
2022-09-05T01:33:54.156Z,74.76
2022-09-05T01:37:32.658Z,74.81
2022-09-05T01:41:23.877Z,74.90
2022-09-05T01:44:41.172Z,75.03
2022-09-05T01:48:05.596Z,75.14
2022-09-05T01:51:32.208Z,75.25
2022-09-05T01:54:46.261Z,75.39
2022-09-05T01:58:13.476Z,75.60
2022-09-05T02:01:36.244Z,75.66
2022-09-05T02:05:06.131Z,75.85
2022-09-05T02:08:23.432Z,75.68
2022-09-05T02:11:44.775Z,75.54
2022-09-05T02:15:15.950Z,75.36
2022-09-05T02:18:24.251Z,75.05
2022-09-05T02:21:56.002Z,74.83
2022-09-05T02:25:30.184Z,74.57
2022-09-05T02:28:47.849Z,74.49
2022-09-05T02:32:01.726Z,74.50
2022-09-05T02:35:10.082Z,74.44
2022-09-05T02:45:00.260Z,74.42
2022-09-05T02:45:10.436Z,74.48
2022-09-05T02:46:11.286Z,74.44
2022-09-05T02:51:01.234Z,74.43
2022-09-05T02:57:38.162Z,74.48
2022-09-05T02:57:39.660Z,74.43
2022-09-05T03:00:14.694Z,74.57
2022-09-05T03:03:54.429Z,74.63
2022-09-05T03:07:02.839Z,74.68
2022-09-05T03:10:28.330Z,74.80
2022-09-05T03:14:07.113Z,74.87
2022-09-05T03:17:48.577Z,75.05
2022-09-05T03:21:12.310Z,75.20
2022-09-05T03:24:14.521Z,75.31
2022-09-05T03:27:38.769Z,75.43
2022-09-05T03:31:22.450Z,75.53
2022-09-05T03:35:08.502Z,75.71
2022-09-05T03:38:26.556Z,75.73
2022-09-05T03:41:40.645Z,75.78
2022-09-05T03:44:49.092Z,75.89
2022-09-05T03:48:28.756Z,75.91
2022-09-05T03:57:08.544Z,75.96
2022-09-05T03:57:15.841Z,76.01
2022-09-05T03:59:18.546Z,76.30
2022-09-05T04:07:48.151Z,76.15
2022-09-05T04:08:24.351Z,76.01
2022-09-05T04:09:51.574Z,75.80
2022-09-05T04:13:08.606Z,75.81
2022-09-05T04:17:03.328Z,75.63
2022-09-05T04:20:40.331Z,75.65
2022-09-05T04:24:06.068Z,75.60
2022-09-05T04:30:55.256Z,75.80
2022-09-05T04:34:26.639Z,75.77
2022-09-05T04:37:55.106Z,75.93
2022-09-05T04:41:03.440Z,76.13
2022-09-05T04:44:12.979Z,76.28
2022-09-05T04:47:21.231Z,76.22
2022-09-05T04:50:35.225Z,76.13
2022-09-05T04:53:41.447Z,76.11
2022-09-05T04:56:49.000Z,76.07
2022-09-05T05:05:46.351Z,75.88
2022-09-05T05:06:13.496Z,75.83
2022-09-05T05:06:55.442Z,75.78
2022-09-05T05:11:30.294Z,75.64
2022-09-05T05:17:59.253Z,75.33
2022-09-05T05:18:08.472Z,75.18
2022-09-05T05:21:23.028Z,74.81
2022-09-05T05:24:32.950Z,74.62
2022-09-05T05:27:49.567Z,74.49
2022-09-05T05:30:54.011Z,74.33
2022-09-05T05:34:24.605Z,74.46
2022-09-05T05:37:40.645Z,74.20
2022-09-05T05:41:06.745Z,73.67
2022-09-05T05:44:18.962Z,73.28
2022-09-05T05:47:31.266Z,72.72
2022-09-05T05:50:37.311Z,72.15
2022-09-05T05:53:52.462Z,71.56
2022-09-05T05:56:54.780Z,71.22
2022-09-05T06:00:17.171Z,70.80
2022-09-05T06:03:51.734Z,70.66
2022-09-05T06:07:15.863Z,70.19
2022-09-05T06:14:47.872Z,69.87
2022-09-05T06:14:55.800Z,69.79
2022-09-05T06:17:31.859Z,69.68
2022-09-05T06:22:11.591Z,69.50
2022-09-05T06:25:19.102Z,68.81
2022-09-05T06:28:40.478Z,68.29
2022-09-05T06:31:57.775Z,67.82
2022-09-05T06:35:14.045Z,67.31
2022-09-05T06:38:16.504Z,66.73
2022-09-05T06:41:28.836Z,66.60
2022-09-05T06:44:43.362Z,66.04
2022-09-05T06:47:47.851Z,65.28
2022-09-05T06:51:27.029Z,64.74
2022-09-05T06:55:00.303Z,63.90
2022-09-05T06:58:24.157Z,63.24
2022-09-05T07:01:41.551Z,62.22
2022-09-05T07:05:37.155Z,61.48
2022-09-05T07:08:56.086Z,60.79
2022-09-05T07:12:08.459Z,60.19
2022-09-05T07:15:17.288Z,59.31
2022-09-05T07:18:41.880Z,58.63
2022-09-05T07:22:46.899Z,57.94
2022-09-05T07:25:54.363Z,57.02
2022-09-05T07:29:03.568Z,55.60
2022-09-05T07:32:08.568Z,55.22
2022-09-05T07:35:34.685Z,53.74
2022-09-05T07:39:02.467Z,52.52
2022-09-05T07:42:16.870Z,53.10
2022-09-05T07:45:27.629Z,52.34
2022-09-05T07:48:35.876Z,51.46
2022-09-05T07:56:56.233Z,50.47
2022-09-05T07:57:08.985Z,48.57
2022-09-05T07:58:52.602Z,48.14
2022-09-05T08:01:56.009Z,46.49
2022-09-05T08:05:06.294Z,45.90
2022-09-05T08:08:32.519Z,44.53
2022-09-05T08:11:37.443Z,44.21
2022-09-05T08:15:04.747Z,42.76
2022-09-05T08:18:35.084Z,41.82
2022-09-05T08:21:43.860Z,40.67
2022-09-05T08:25:13.795Z,40.41
2022-09-05T08:28:37.651Z,38.34
2022-09-05T08:32:09.688Z,37.05
2022-09-05T08:35:21.120Z,36.29
2022-09-05T08:38:25.367Z,36.62
2022-09-05T08:41:51.137Z,36.87
2022-09-05T08:46:40.343Z,35.59
2022-09-05T08:48:40.457Z,34.93
2022-09-05T08:52:04.204Z,36.17
2022-09-05T08:55:50.468Z,35.64
2022-09-05T08:59:31.571Z,34.34
2022-09-05T09:02:47.305Z,33.03
2022-09-05T09:06:17.060Z,33.10
2022-09-05T09:09:56.874Z,31.72
2022-09-05T09:13:30.358Z,29.73
2022-09-05T09:16:41.665Z,29.28
2022-09-05T09:19:52.992Z,29.49
2022-09-05T09:23:01.965Z,29.09
2022-09-05T09:26:16.938Z,28.49
2022-09-05T09:29:19.767Z,27.80
2022-09-05T09:32:26.612Z,28.68
2022-09-05T09:35:37.772Z,28.10
2022-09-05T09:39:21.564Z,27.33
2022-09-05T09:42:40.965Z,25.88
2022-09-05T09:46:15.567Z,25.93
2022-09-05T09:49:46.028Z,25.75
2022-09-05T09:53:00.610Z,25.03
2022-09-05T09:56:21.530Z,24.72
2022-09-05T09:59:54.778Z,24.59
2022-09-05T10:10:23.323Z,24.40
2022-09-05T10:10:50.596Z,23.52
2022-09-05T10:15:03.162Z,25.03
2022-09-05T10:18:52.145Z,24.61
2022-09-05T10:22:36.586Z,25.10
2022-09-05T10:26:02.066Z,24.79
2022-09-05T10:29:37.470Z,26.50
2022-09-05T10:35:11.370Z,26.25
2022-09-05T10:36:39.860Z,26.86
2022-09-05T10:39:47.432Z,27.53
2022-09-05T10:43:13.295Z,28.19
2022-09-05T10:46:50.067Z,27.67
2022-09-05T10:50:11.578Z,27.36
2022-09-05T10:53:55.783Z,26.84
2022-09-05T10:57:21.220Z,27.80
2022-09-05T11:02:20.363Z,27.83
2022-09-05T11:04:27.524Z,27.74
2022-09-05T11:07:42.186Z,26.21
2022-09-05T11:10:51.232Z,25.53
2022-09-05T11:13:55.530Z,26.25
2022-09-05T11:17:30.657Z,26.15
2022-09-05T11:20:47.801Z,25.93
2022-09-05T11:23:57.566Z,26.54
2022-09-05T11:27:23.405Z,27.78
2022-09-05T11:30:38.662Z,28.03
2022-09-05T11:39:45.768Z,28.95
2022-09-05T11:40:07.553Z,30.36
2022-09-05T11:41:24.652Z,30.87
2022-09-05T11:44:47.845Z,31.22
2022-09-05T11:48:13.138Z,31.65
2022-09-05T11:51:34.441Z,31.73
2022-09-05T11:55:01.125Z,32.62
2022-09-05T11:58:44.071Z,32.89
2022-09-05T12:02:24.304Z,31.66
2022-09-05T12:05:59.329Z,30.28
2022-09-05T12:09:50.133Z,29.83
2022-09-05T12:13:08.359Z,29.18
2022-09-05T12:16:40.112Z,29.28
2022-09-05T12:19:58.176Z,29.38
2022-09-05T12:23:53.835Z,28.20
2022-09-05T12:27:38.281Z,28.53
2022-09-05T12:30:53.090Z,27.56
2022-09-05T12:36:08.392Z,27.38
2022-09-05T12:40:05.223Z,27.19
2022-09-05T12:41:43.898Z,26.39
2022-09-05T12:45:10.310Z,26.48
2022-09-05T12:48:26.081Z,26.99
2022-09-05T12:51:53.949Z,28.05
2022-09-05T12:55:04.997Z,29.20
2022-09-05T13:02:56.640Z,29.05
2022-09-05T13:03:01.186Z,29.66
2022-09-05T13:05:57.865Z,28.77
2022-09-05T13:10:07.661Z,29.03
2022-09-05T13:15:00.995Z,30.33
2022-09-05T13:16:25.197Z,30.21
2022-09-05T13:19:33.257Z,30.16
2022-09-05T13:22:38.493Z,30.40
2022-09-05T13:26:05.795Z,30.58
2022-09-05T13:29:16.237Z,30.21
2022-09-05T13:38:12.951Z,30.86
2022-09-05T13:38:19.071Z,30.62
2022-09-05T13:39:38.177Z,31.11
2022-09-05T13:42:45.413Z,31.93
2022-09-05T13:46:03.609Z,32.64
2022-09-05T13:49:31.963Z,33.64
2022-09-05T13:52:41.053Z,34.02
2022-09-05T13:55:49.981Z,34.12
2022-09-05T13:59:02.142Z,33.69
2022-09-05T14:03:29.473Z,33.52
2022-09-05T14:06:48.837Z,33.35
2022-09-05T14:10:06.641Z,33.38
2022-09-05T14:13:28.325Z,33.87
2022-09-05T14:16:42.030Z,33.76
2022-09-05T14:20:17.189Z,34.32
2022-09-05T14:23:26.310Z,34.26
2022-09-05T14:26:46.646Z,33.39
2022-09-05T14:29:52.667Z,33.83
2022-09-05T14:37:49.995Z,33.88
2022-09-05T14:37:53.123Z,33.93
2022-09-05T14:41:02.820Z,33.81
2022-09-05T14:44:29.902Z,33.33
2022-09-05T14:48:04.339Z,33.98
2022-09-05T14:51:31.883Z,33.92
2022-09-05T15:02:46.049Z,34.56
2022-09-05T15:02:47.888Z,34.80
2022-09-05T15:04:56.671Z,34.78
2022-09-05T15:08:16.239Z,34.75
2022-09-05T15:12:23.216Z,35.23
2022-09-05T15:15:00.679Z,35.40
2022-09-05T15:18:17.695Z,35.17
2022-09-05T15:21:36.543Z,35.14
2022-09-05T15:24:38.956Z,34.94
2022-09-05T15:27:42.474Z,34.94
2022-09-05T15:30:57.703Z,35.20
2022-09-05T15:34:20.389Z,35.21
2022-09-05T15:37:23.114Z,35.18
2022-09-05T15:40:25.801Z,35.42
2022-09-05T15:43:28.582Z,35.46
2022-09-05T15:46:53.203Z,35.45
2022-09-05T15:49:59.750Z,35.52
2022-09-05T15:53:03.820Z,35.63
2022-09-05T15:56:11.984Z,36.06
2022-09-05T15:59:20.920Z,35.95
2022-09-05T16:02:34.792Z,36.02
2022-09-05T16:10:34.485Z,35.87
2022-09-05T16:10:42.751Z,35.81
2022-09-05T16:20:08.921Z,35.80
2022-09-05T16:23:29.889Z,35.86
2022-09-05T16:23:34.526Z,36.06
2022-09-05T16:26:28.431Z,35.90
2022-09-05T16:29:38.491Z,36.52
2022-09-05T16:32:46.563Z,36.53
2022-09-05T16:35:56.955Z,36.55
2022-09-05T16:39:03.889Z,36.60
2022-09-05T16:42:46.163Z,37.60
2022-09-05T16:46:20.823Z,37.26
2022-09-05T16:49:41.907Z,37.34
2022-09-05T16:52:53.482Z,42.83
2022-09-05T16:56:04.969Z,45.28
2022-09-05T16:59:12.906Z,45.09
2022-09-05T17:02:43.996Z,46.22
2022-09-05T17:05:46.841Z,47.71
2022-09-05T17:08:51.972Z,48.39
2022-09-05T17:12:07.084Z,48.17
2022-09-05T17:15:14.787Z,48.71
2022-09-05T17:18:25.045Z,48.66
2022-09-05T17:21:36.606Z,48.24
2022-09-05T17:29:16.954Z,47.71
2022-09-05T17:29:29.473Z,47.50
2022-09-05T17:32:19.029Z,48.07
2022-09-05T17:36:00.125Z,48.03
2022-09-05T17:39:34.538Z,48.32
2022-09-05T17:43:09.587Z,47.70
2022-09-05T17:46:26.174Z,47.49
2022-09-05T17:49:43.234Z,47.19
2022-09-05T17:52:56.287Z,46.74
2022-09-05T17:55:58.596Z,47.01
2022-09-05T17:59:05.643Z,47.54
2022-09-05T18:02:08.132Z,47.42
2022-09-05T18:05:49.447Z,48.13
2022-09-05T18:08:53.000Z,47.69
2022-09-05T18:13:14.056Z,47.70
2022-09-05T18:16:07.306Z,48.10
2022-09-05T18:19:32.970Z,48.84
2022-09-05T18:22:40.706Z,49.05
2022-09-05T18:25:55.083Z,49.21
2022-09-05T18:29:15.547Z,49.61
2022-09-05T18:32:39.000Z,49.07
2022-09-05T18:36:06.040Z,49.05
2022-09-05T18:39:38.368Z,49.49
2022-09-05T18:42:46.798Z,49.33
2022-09-05T18:45:53.284Z,49.50
2022-09-05T18:50:21.592Z,49.80
2022-09-05T18:52:35.299Z,50.02
2022-09-05T18:56:12.916Z,50.32
2022-09-05T18:59:24.201Z,50.60
2022-09-05T19:02:59.499Z,50.92
2022-09-05T19:06:37.082Z,51.57
2022-09-05T19:09:31.895Z,51.63
2022-09-05T19:12:47.915Z,51.77
2022-09-05T19:16:42.734Z,52.08
2022-09-05T19:19:27.965Z,52.17
2022-09-05T19:23:06.684Z,52.30
2022-09-05T19:25:56.283Z,52.52
2022-09-05T19:36:46.550Z,52.82
2022-09-05T19:36:54.645Z,53.03
2022-09-05T19:37:13.409Z,53.28
2022-09-05T19:42:36.441Z,53.35
2022-09-05T19:47:45.140Z,53.67
2022-09-05T19:47:52.050Z,53.57
2022-09-05T19:49:46.873Z,54.17
2022-09-05T19:53:03.772Z,54.28
2022-09-05T19:56:07.469Z,54.35
2022-09-05T19:59:26.851Z,54.37
2022-09-05T20:02:51.414Z,54.36
2022-09-05T20:05:54.499Z,54.48
2022-09-05T20:09:15.687Z,54.92
2022-09-05T20:12:32.723Z,55.05
2022-09-05T20:15:39.007Z,55.22
2022-09-05T20:18:44.346Z,55.36
2022-09-05T20:21:58.973Z,55.47
2022-09-05T20:25:10.527Z,55.55
2022-09-05T20:28:38.299Z,55.77
2022-09-05T20:32:04.832Z,55.62
2022-09-05T20:37:31.362Z,55.66
2022-09-05T20:43:17.502Z,55.59
2022-09-05T20:43:20.080Z,55.45
2022-09-05T20:46:49.712Z,54.94
2022-09-05T20:54:08.427Z,55.01
2022-09-05T20:54:21.741Z,54.69
2022-09-05T20:56:22.652Z,53.97
2022-09-05T20:59:32.053Z,53.19
2022-09-05T21:02:35.550Z,51.98
2022-09-05T21:05:41.902Z,51.65
2022-09-05T21:08:44.390Z,51.01
2022-09-05T21:11:50.769Z,50.80
2022-09-05T21:15:21.304Z,50.95
2022-09-05T21:18:33.864Z,50.51
2022-09-05T21:21:38.346Z,50.94
2022-09-05T21:24:42.405Z,50.81
2022-09-05T21:28:06.119Z,50.86
2022-09-05T21:31:14.636Z,51.16
2022-09-05T21:34:26.005Z,51.18
2022-09-05T21:37:28.631Z,51.58
2022-09-05T21:40:31.581Z,51.79
2022-09-05T21:47:34.035Z,51.84
2022-09-05T21:47:42.056Z,51.71
2022-09-05T21:50:31.099Z,51.74
2022-09-05T21:59:20.704Z,52.11
2022-09-05T21:59:29.386Z,52.35
2022-09-05T22:00:34.263Z,52.55
2022-09-05T22:03:40.456Z,52.71
2022-09-05T22:06:48.683Z,52.67
2022-09-05T22:09:51.474Z,52.63
2022-09-05T22:12:54.812Z,52.48
2022-09-05T22:16:04.752Z,52.44
2022-09-05T22:19:07.164Z,52.59
2022-09-05T22:22:20.229Z,52.44
2022-09-05T22:25:27.657Z,52.43
2022-09-05T22:28:36.067Z,52.47
2022-09-05T22:31:39.293Z,52.41
2022-09-05T22:34:42.142Z,52.55
2022-09-05T22:37:47.484Z,52.65
2022-09-05T22:40:50.251Z,52.77
2022-09-05T22:43:52.480Z,52.81
2022-09-05T22:46:55.054Z,52.80
2022-09-05T22:49:57.437Z,52.02
2022-09-05T22:53:00.409Z,52.24
2022-09-05T22:56:05.956Z,52.32
2022-09-05T22:59:11.206Z,52.28
2022-09-05T23:02:13.515Z,52.08
2022-09-05T23:05:16.114Z,52.31
2022-09-05T23:08:18.342Z,52.61
2022-09-05T23:11:20.899Z,52.60
2022-09-05T23:14:23.162Z,52.51
2022-09-05T23:17:25.876Z,52.85
2022-09-05T23:20:30.327Z,53.04
2022-09-05T23:23:33.183Z,53.12
2022-09-05T23:26:35.436Z,53.44
2022-09-05T23:29:40.789Z,53.72
2022-09-05T23:32:50.764Z,54.04
2022-09-05T23:35:59.361Z,54.22
2022-09-05T23:39:02.041Z,54.26
2022-09-05T23:42:04.671Z,54.30
2022-09-05T23:45:08.275Z,54.12
2022-09-05T23:48:10.980Z,54.31
2022-09-05T23:51:13.904Z,54.45
2022-09-05T23:54:16.514Z,54.61
2022-09-05T23:57:22.998Z,54.75
